createdAt,value
2022-09-16T00:00:51.206Z,14.79
2022-09-16T00:03:18.448Z,14.68
2022-09-16T00:05:49.037Z,14.69
2022-09-16T00:08:16.691Z,14.73
2022-09-16T00:10:44.012Z,14.76
2022-09-16T00:13:12.932Z,14.81
2022-09-16T00:15:44.952Z,14.83
2022-09-16T00:18:12.111Z,14.76
2022-09-16T00:20:45.818Z,14.83
2022-09-16T00:23:12.700Z,14.84
2022-09-16T00:25:39.512Z,14.83
2022-09-16T00:28:06.371Z,14.88
2022-09-16T00:30:33.404Z,14.93
2022-09-16T00:33:00.176Z,15.00
2022-09-16T00:35:27.101Z,15.03
2022-09-16T00:37:53.866Z,15.03
2022-09-16T00:40:20.935Z,15.10
2022-09-16T00:42:47.819Z,15.13
2022-09-16T00:45:20.113Z,15.23
2022-09-16T00:48:05.770Z,15.29
2022-09-16T00:50:38.838Z,15.38
2022-09-16T00:53:13.494Z,15.40
2022-09-16T00:55:40.618Z,15.50
2022-09-16T00:58:42.525Z,15.56
2022-09-16T01:01:09.374Z,15.61
2022-09-16T01:03:45.929Z,15.36
2022-09-16T01:06:14.163Z,15.48
2022-09-16T01:08:43.143Z,15.49
2022-09-16T01:11:09.947Z,15.55
2022-09-16T01:13:37.914Z,15.31
2022-09-16T01:16:30.292Z,15.27
2022-09-16T01:19:26.832Z,15.34
2022-09-16T01:22:25.553Z,15.35
2022-09-16T01:25:34.599Z,15.33
2022-09-16T01:28:23.304Z,15.38
2022-09-16T01:31:38.711Z,15.34
2022-09-16T01:34:11.409Z,15.27
2022-09-16T01:36:55.087Z,15.37
2022-09-16T01:39:31.145Z,15.48
2022-09-16T01:42:39.608Z,15.50
2022-09-16T01:45:19.639Z,15.57
2022-09-16T01:48:17.308Z,15.61
2022-09-16T01:50:55.495Z,15.62
2022-09-16T01:53:34.691Z,15.64
2022-09-16T01:56:13.932Z,15.67
2022-09-16T01:59:05.625Z,15.64
2022-09-16T02:01:42.596Z,15.62
2022-09-16T02:04:17.047Z,15.63
2022-09-16T02:06:46.456Z,15.58
2022-09-16T02:09:34.855Z,15.51
2022-09-16T02:12:07.298Z,15.52
2022-09-16T02:14:40.410Z,15.51
2022-09-16T02:17:15.323Z,15.54
2022-09-16T02:19:48.930Z,15.53
2022-09-16T02:22:28.527Z,15.53
2022-09-16T02:24:55.710Z,15.56
2022-09-16T02:27:23.480Z,15.59
2022-09-16T02:29:59.430Z,15.53
2022-09-16T02:32:28.823Z,15.48
2022-09-16T02:34:56.850Z,15.41
2022-09-16T02:37:50.831Z,15.32
2022-09-16T02:40:25.644Z,15.35
2022-09-16T02:42:53.215Z,15.39
2022-09-16T02:45:27.975Z,15.39
2022-09-16T02:48:07.070Z,15.41
2022-09-16T02:50:54.903Z,15.41
2022-09-16T02:53:43.307Z,15.42
2022-09-16T02:56:29.659Z,15.39
2022-09-16T02:58:56.694Z,15.41
2022-09-16T03:01:24.540Z,15.46
2022-09-16T03:03:55.150Z,15.56
2022-09-16T03:06:27.432Z,15.64
2022-09-16T03:08:59.153Z,15.61
2022-09-16T03:11:33.252Z,15.70
2022-09-16T03:14:51.110Z,15.81
2022-09-16T03:17:29.691Z,15.79
2022-09-16T03:20:08.554Z,15.88
2022-09-16T03:22:49.228Z,15.79
2022-09-16T03:25:59.397Z,15.86
2022-09-16T03:28:35.751Z,15.82
2022-09-16T03:31:18.342Z,15.87
2022-09-16T03:33:52.040Z,15.69
2022-09-16T03:36:25.230Z,15.38
2022-09-16T03:38:54.197Z,15.37
2022-09-16T03:41:21.942Z,15.42
2022-09-16T03:44:00.272Z,15.39
2022-09-16T03:46:29.966Z,15.43
2022-09-16T03:48:57.413Z,15.48
2022-09-16T03:51:25.838Z,15.70
2022-09-16T03:53:53.792Z,15.88
2022-09-16T03:56:22.727Z,16.00
2022-09-16T03:58:49.699Z,15.70
2022-09-16T04:01:16.610Z,15.61
2022-09-16T04:03:43.455Z,15.61
2022-09-16T04:06:10.258Z,15.61
2022-09-16T04:08:37.424Z,15.62
2022-09-16T04:11:06.143Z,15.57
2022-09-16T04:13:35.135Z,15.86
2022-09-16T04:16:03.612Z,15.92
2022-09-16T04:18:34.758Z,15.99
2022-09-16T04:21:04.744Z,15.91
2022-09-16T04:23:31.533Z,15.86
2022-09-16T04:26:00.952Z,15.82
2022-09-16T04:28:30.839Z,15.81
2022-09-16T04:31:05.730Z,15.40
2022-09-16T04:33:34.778Z,15.60
2022-09-16T04:36:15.330Z,15.58
2022-09-16T04:38:44.845Z,15.61
2022-09-16T04:41:21.620Z,15.29
2022-09-16T04:43:53.770Z,15.29
2022-09-16T04:46:20.700Z,15.36
2022-09-16T04:48:51.762Z,15.27
2022-09-16T04:51:20.324Z,15.24
2022-09-16T04:53:47.523Z,15.42
2022-09-16T04:56:21.374Z,15.43
2022-09-16T04:58:53.676Z,15.55
2022-09-16T05:01:25.117Z,15.52
2022-09-16T05:03:54.913Z,15.47
2022-09-16T05:06:27.662Z,15.59
2022-09-16T05:08:56.246Z,15.59
2022-09-16T05:11:26.351Z,15.59
2022-09-16T05:13:53.782Z,15.59
2022-09-16T05:16:24.616Z,15.44
2022-09-16T05:18:56.207Z,15.37
2022-09-16T05:21:26.174Z,15.56
2022-09-16T05:23:53.783Z,15.64
2022-09-16T05:26:25.991Z,15.64
2022-09-16T05:28:53.801Z,15.69
2022-09-16T05:31:27.738Z,15.73
2022-09-16T05:34:16.123Z,15.79
2022-09-16T05:36:44.081Z,15.93
2022-09-16T05:39:25.106Z,16.00
2022-09-16T05:42:00.135Z,16.07
2022-09-16T05:44:28.157Z,16.12
2022-09-16T05:46:55.479Z,16.16
2022-09-16T05:49:23.809Z,16.20
2022-09-16T05:51:51.575Z,16.18
2022-09-16T05:54:19.312Z,16.19
2022-09-16T05:56:47.478Z,16.21
2022-09-16T05:59:15.854Z,16.30
2022-09-16T06:01:42.740Z,16.48
2022-09-16T06:04:13.647Z,16.42
2022-09-16T06:06:43.075Z,16.50
2022-09-16T06:09:20.366Z,16.54
2022-09-16T06:11:50.106Z,16.71
2022-09-16T06:14:18.480Z,16.84
2022-09-16T06:16:45.759Z,16.89
2022-09-16T06:19:17.094Z,17.09
2022-09-16T06:21:45.247Z,17.07
2022-09-16T06:24:14.506Z,17.20
2022-09-16T06:26:44.002Z,17.24
2022-09-16T06:29:11.507Z,17.28
2022-09-16T06:31:39.039Z,17.34
2022-09-16T06:34:07.527Z,17.40
2022-09-16T06:36:41.522Z,17.33
2022-09-16T06:39:15.802Z,17.29
2022-09-16T06:41:42.918Z,17.31
2022-09-16T06:44:09.833Z,17.37
2022-09-16T06:46:37.081Z,17.51
2022-09-16T06:49:06.170Z,17.60
2022-09-16T06:51:36.010Z,17.74
2022-09-16T06:54:06.426Z,17.72
2022-09-16T06:56:36.139Z,17.67
2022-09-16T06:59:03.517Z,17.66
2022-09-16T07:01:31.783Z,17.76
2022-09-16T07:04:02.826Z,17.80
2022-09-16T07:06:58.228Z,17.80
2022-09-16T07:09:17.846Z,17.84
2022-09-16T07:11:44.727Z,17.75
2022-09-16T07:14:11.567Z,17.76
2022-09-16T07:16:38.376Z,17.76
2022-09-16T07:19:05.887Z,17.80
2022-09-16T07:21:32.726Z,17.85
2022-09-16T07:24:01.683Z,17.93
2022-09-16T07:26:35.269Z,17.80
2022-09-16T07:29:04.850Z,17.69
2022-09-16T07:31:34.903Z,17.72
2022-09-16T07:34:04.630Z,17.68
2022-09-16T07:36:45.147Z,17.61
2022-09-16T07:39:14.569Z,17.74
2022-09-16T07:41:44.563Z,17.82
2022-09-16T07:44:17.234Z,17.97
2022-09-16T07:46:44.081Z,18.07
2022-09-16T07:49:14.227Z,18.18
2022-09-16T07:51:41.445Z,18.25
2022-09-16T07:54:12.670Z,18.28
2022-09-16T07:56:41.218Z,18.36
2022-09-16T07:59:17.709Z,18.28
2022-09-16T08:01:46.815Z,18.44
2022-09-16T08:04:13.715Z,18.62
2022-09-16T08:06:41.013Z,18.76
2022-09-16T08:09:37.240Z,18.79
2022-09-16T08:11:54.709Z,18.95
2022-09-16T08:14:21.495Z,19.20
2022-09-16T08:16:51.244Z,19.32
2022-09-16T08:19:19.336Z,19.39
2022-09-16T08:21:46.295Z,19.37
2022-09-16T08:24:13.048Z,19.32
2022-09-16T08:26:40.332Z,19.48
2022-09-16T08:29:09.784Z,19.68
2022-09-16T08:31:38.170Z,19.83
2022-09-16T08:34:05.962Z,19.87
2022-09-16T08:36:33.741Z,19.96
2022-09-16T08:39:01.368Z,20.38
2022-09-16T08:41:46.844Z,20.52
2022-09-16T08:44:52.347Z,20.28
2022-09-16T08:47:32.041Z,20.43
2022-09-16T08:50:04.051Z,20.31
2022-09-16T08:52:35.427Z,20.37
2022-09-16T08:55:10.774Z,20.20
2022-09-16T08:57:52.861Z,20.19
2022-09-16T09:00:20.495Z,20.15
2022-09-16T09:02:58.790Z,19.99
2022-09-16T09:06:11.701Z,19.70
2022-09-16T09:09:10.219Z,19.36
2022-09-16T09:11:57.922Z,19.32
2022-09-16T09:15:16.795Z,19.20
2022-09-16T09:17:57.710Z,18.96
2022-09-16T09:20:47.948Z,18.78
2022-09-16T09:23:44.025Z,18.65
2022-09-16T09:26:22.859Z,18.55
2022-09-16T09:28:57.180Z,18.63
2022-09-16T09:31:32.939Z,18.59
2022-09-16T09:34:31.557Z,18.55
2022-09-16T09:37:54.746Z,18.55
2022-09-16T09:40:46.276Z,18.60
2022-09-16T09:43:22.104Z,18.63
2022-09-16T09:46:28.931Z,18.41
2022-09-16T09:49:12.161Z,18.55
2022-09-16T09:51:58.596Z,18.63
2022-09-16T09:54:35.455Z,18.56
2022-09-16T09:57:32.981Z,18.53
2022-09-16T10:00:14.286Z,18.43
2022-09-16T10:02:48.853Z,18.43
2022-09-16T10:05:28.676Z,18.36
2022-09-16T10:08:51.286Z,18.28
2022-09-16T10:11:23.251Z,18.22
2022-09-16T10:13:53.878Z,18.15
2022-09-16T10:16:25.947Z,17.86
2022-09-16T10:19:17.063Z,17.92
2022-09-16T10:21:53.172Z,17.90
2022-09-16T10:24:33.945Z,17.93
2022-09-16T10:27:16.923Z,17.96
2022-09-16T10:29:43.703Z,17.91
2022-09-16T10:32:17.894Z,17.94
2022-09-16T10:34:46.606Z,17.78
2022-09-16T10:37:13.446Z,17.80
2022-09-16T10:39:51.795Z,17.79
2022-09-16T10:42:28.230Z,17.92
2022-09-16T10:45:14.047Z,18.22
2022-09-16T10:47:41.200Z,18.05
2022-09-16T10:50:08.628Z,18.36
2022-09-16T10:52:47.434Z,18.39
2022-09-16T10:55:19.832Z,18.10
2022-09-16T10:57:47.411Z,18.27
2022-09-16T11:00:22.771Z,18.12
2022-09-16T11:03:50.006Z,17.74
2022-09-16T11:06:54.495Z,17.38
2022-09-16T11:10:11.523Z,17.39
2022-09-16T11:12:50.473Z,17.22
2022-09-16T11:16:14.351Z,16.90
2022-09-16T11:18:58.604Z,16.46
2022-09-16T11:21:55.814Z,16.17
2022-09-16T11:24:34.392Z,16.38
2022-09-16T11:27:47.136Z,16.29
2022-09-16T11:30:18.567Z,16.35
2022-09-16T11:33:34.132Z,16.09
2022-09-16T11:36:56.778Z,16.20
2022-09-16T11:39:41.412Z,16.40
2022-09-16T11:42:28.493Z,16.47
2022-09-16T11:45:29.930Z,16.72
2022-09-16T11:48:37.605Z,16.82
2022-09-16T11:51:07.530Z,16.44
2022-09-16T11:53:46.646Z,16.65
2022-09-16T11:56:36.479Z,16.46
2022-09-16T11:59:33.363Z,16.60
2022-09-16T12:02:51.886Z,16.69
2022-09-16T12:05:40.869Z,16.21
2022-09-16T12:08:23.528Z,16.58
2022-09-16T12:10:56.930Z,16.53
2022-09-16T12:13:27.639Z,16.24
2022-09-16T12:16:04.071Z,16.43
2022-09-16T12:18:37.630Z,16.11
2022-09-16T12:21:47.074Z,16.38
2022-09-16T12:24:31.965Z,16.39
2022-09-16T12:27:55.123Z,16.32
2022-09-16T12:30:27.711Z,16.32
2022-09-16T12:33:14.730Z,16.37
2022-09-16T12:36:06.744Z,16.33
2022-09-16T12:38:33.906Z,16.30
2022-09-16T12:41:37.842Z,16.51
2022-09-16T12:44:33.897Z,16.50
2022-09-16T12:47:29.364Z,16.64
2022-09-16T12:50:24.046Z,16.66
2022-09-16T12:53:31.440Z,16.44
2022-09-16T12:56:28.901Z,16.04
2022-09-16T12:59:32.533Z,15.97
2022-09-16T13:02:33.698Z,15.93
2022-09-16T13:05:34.168Z,16.13
2022-09-16T13:08:16.258Z,16.31
2022-09-16T13:11:28.036Z,16.58
2022-09-16T13:13:42.577Z,16.98
2022-09-16T13:16:10.209Z,17.16
2022-09-16T13:18:50.327Z,17.22
2022-09-16T13:21:28.468Z,17.58
2022-09-16T13:24:11.167Z,17.90
2022-09-16T13:26:43.998Z,18.31
2022-09-16T13:29:37.559Z,18.52
2022-09-16T13:32:04.939Z,19.06
2022-09-16T13:34:31.980Z,19.28
2022-09-16T13:36:58.795Z,19.19
2022-09-16T13:39:34.634Z,18.77
2022-09-16T13:42:21.396Z,18.39
2022-09-16T13:44:48.191Z,18.19
2022-09-16T13:47:30.731Z,18.10
2022-09-16T13:50:14.460Z,17.96
2022-09-16T13:52:42.555Z,17.91
2022-09-16T13:55:23.948Z,17.86
2022-09-16T13:58:19.055Z,17.96
2022-09-16T14:01:56.159Z,18.23
2022-09-16T14:04:45.930Z,18.38
2022-09-16T14:07:55.586Z,18.34
2022-09-16T14:11:01.514Z,18.12
2022-09-16T14:13:44.462Z,18.06
2022-09-16T14:16:30.843Z,17.87
2022-09-16T14:19:27.854Z,17.70
2022-09-16T14:22:05.839Z,17.57
2022-09-16T14:24:41.355Z,17.51
2022-09-16T14:27:34.707Z,17.61
2022-09-16T14:30:07.314Z,17.60
2022-09-16T14:32:36.922Z,17.75
2022-09-16T14:35:16.608Z,17.72
2022-09-16T14:37:47.500Z,17.57
2022-09-16T14:40:18.881Z,17.48
2022-09-16T14:43:16.834Z,17.68
2022-09-16T14:45:49.798Z,17.53
2022-09-16T14:48:18.583Z,17.59
2022-09-16T14:50:49.515Z,17.08
2022-09-16T14:53:35.815Z,16.99
2022-09-16T14:56:05.040Z,17.08
2022-09-16T14:58:33.649Z,17.11
2022-09-16T15:01:19.411Z,17.11
2022-09-16T15:04:16.561Z,16.54
2022-09-16T15:06:52.156Z,16.84
2022-09-16T15:09:26.051Z,16.72
2022-09-16T15:11:57.910Z,16.71
2022-09-16T15:14:26.731Z,16.49
2022-09-16T15:17:02.442Z,16.55
2022-09-16T15:19:36.025Z,16.64
2022-09-16T15:22:04.118Z,16.64
2022-09-16T15:24:34.043Z,16.16
2022-09-16T15:27:02.196Z,16.42
2022-09-16T15:29:33.858Z,16.23
2022-09-16T15:32:19.368Z,16.20
2022-09-16T15:34:46.547Z,16.20
2022-09-16T15:37:34.432Z,16.16
2022-09-16T15:40:25.483Z,16.25
2022-09-16T15:43:21.754Z,16.37
2022-09-16T15:46:04.224Z,16.52
2022-09-16T15:48:59.518Z,16.02
2022-09-16T15:51:33.139Z,15.76
2022-09-16T15:54:32.354Z,16.19
2022-09-16T15:57:09.576Z,16.27
2022-09-16T15:59:55.050Z,16.36
2022-09-16T16:02:45.269Z,16.32
2022-09-16T16:05:25.118Z,16.27
2022-09-16T16:07:56.073Z,16.38
2022-09-16T16:10:27.507Z,16.18
2022-09-16T16:12:55.441Z,16.12
2022-09-16T16:15:31.576Z,16.09
2022-09-16T16:18:02.718Z,16.08
2022-09-16T16:20:33.027Z,16.14
2022-09-16T16:23:00.779Z,16.11
2022-09-16T16:25:27.935Z,16.09
2022-09-16T16:27:54.694Z,16.15
2022-09-16T16:30:21.523Z,16.08
2022-09-16T16:32:48.846Z,16.08
2022-09-16T16:35:15.671Z,15.80
2022-09-16T16:37:47.086Z,15.54
2022-09-16T16:40:15.487Z,15.40
2022-09-16T16:42:43.569Z,15.48
2022-09-16T16:45:13.320Z,15.23
2022-09-16T16:47:40.900Z,15.25
2022-09-16T16:50:08.070Z,15.40
2022-09-16T16:52:34.859Z,15.32
2022-09-16T16:55:01.604Z,15.45
2022-09-16T16:57:29.230Z,15.12
2022-09-16T16:59:56.340Z,15.29
2022-09-16T17:02:23.324Z,15.30
2022-09-16T17:04:50.105Z,15.23
2022-09-16T17:07:32.516Z,15.18
2022-09-16T17:09:59.406Z,15.29
2022-09-16T17:12:26.927Z,15.32
2022-09-16T17:14:53.827Z,15.30
2022-09-16T17:17:20.590Z,15.28
2022-09-16T17:19:47.356Z,15.27
2022-09-16T17:22:14.118Z,15.21
2022-09-16T17:24:40.869Z,15.25
2022-09-16T17:27:07.684Z,15.33
2022-09-16T17:29:34.471Z,15.30
2022-09-16T17:32:02.910Z,15.45
2022-09-16T17:34:30.983Z,15.47
2022-09-16T17:36:58.181Z,15.49
2022-09-16T17:39:24.982Z,15.57
2022-09-16T17:41:51.751Z,15.45
2022-09-16T17:44:19.654Z,15.45
2022-09-16T17:46:47.352Z,15.54
2022-09-16T17:49:23.647Z,15.46
2022-09-16T17:51:51.896Z,15.50
2022-09-16T17:54:19.018Z,15.46
2022-09-16T17:56:46.697Z,15.48
2022-09-16T17:59:16.938Z,15.46
2022-09-16T18:01:44.217Z,15.47
2022-09-16T18:04:11.120Z,15.33
2022-09-16T18:06:46.127Z,15.36
2022-09-16T18:09:14.264Z,15.35
2022-09-16T18:11:41.078Z,14.93
2022-09-16T18:14:11.591Z,15.08
2022-09-16T18:16:38.651Z,15.01
2022-09-16T18:19:05.685Z,15.03
2022-09-16T18:21:33.445Z,14.98
2022-09-16T18:24:03.057Z,14.98
2022-09-16T18:26:31.635Z,14.94
2022-09-16T18:29:16.676Z,14.85
2022-09-16T18:31:46.998Z,14.79
2022-09-16T18:34:15.109Z,14.77
2022-09-16T18:36:42.369Z,14.77
2022-09-16T18:39:14.681Z,14.76
2022-09-16T18:41:43.270Z,14.73
2022-09-16T18:44:20.586Z,14.74
2022-09-16T18:46:47.888Z,14.64
2022-09-16T18:49:17.028Z,14.63
2022-09-16T18:51:51.763Z,14.61
2022-09-16T18:54:31.111Z,14.58
2022-09-16T18:57:00.208Z,14.56
2022-09-16T18:59:30.883Z,14.50
2022-09-16T19:02:00.514Z,14.46
2022-09-16T19:04:30.725Z,14.38
2022-09-16T19:07:05.723Z,14.33
2022-09-16T19:09:32.621Z,14.27
2022-09-16T19:12:00.916Z,14.24
2022-09-16T19:14:28.023Z,14.19
2022-09-16T19:16:54.994Z,14.14
2022-09-16T19:19:22.503Z,14.12
2022-09-16T19:21:49.363Z,14.11
2022-09-16T19:24:22.903Z,14.15
2022-09-16T19:26:53.529Z,14.09
2022-09-16T19:29:21.306Z,14.05
2022-09-16T19:31:54.202Z,14.01
2022-09-16T19:34:22.089Z,14.00
2022-09-16T19:36:49.673Z,14.02
2022-09-16T19:39:16.579Z,14.10
2022-09-16T19:41:43.594Z,14.07
2022-09-16T19:44:14.683Z,14.12
2022-09-16T19:46:42.730Z,14.17
2022-09-16T19:49:16.783Z,14.21
2022-09-16T19:51:44.101Z,14.23
2022-09-16T19:54:11.090Z,14.27
2022-09-16T19:56:37.941Z,14.30
2022-09-16T19:59:04.936Z,14.30
2022-09-16T20:01:34.196Z,14.31
2022-09-16T20:04:03.786Z,14.33
2022-09-16T20:06:41.354Z,14.39
2022-09-16T20:09:12.747Z,14.36
2022-09-16T20:11:44.502Z,14.37
2022-09-16T20:14:20.580Z,14.39
2022-09-16T20:16:49.374Z,14.41
2022-09-16T20:19:18.600Z,14.47
2022-09-16T20:21:45.694Z,14.48
2022-09-16T20:24:19.480Z,14.36
2022-09-16T20:26:53.846Z,14.46
2022-09-16T20:29:21.461Z,14.55
2022-09-16T20:31:50.745Z,14.58
2022-09-16T20:34:17.601Z,14.64
2022-09-16T20:36:45.912Z,14.68
2022-09-16T20:39:13.922Z,14.69
2022-09-16T20:41:41.383Z,14.73
2022-09-16T20:44:12.745Z,14.79
2022-09-16T20:46:39.551Z,14.76
2022-09-16T20:49:10.515Z,14.80
2022-09-16T20:51:37.628Z,14.89
2022-09-16T20:54:08.691Z,14.89
2022-09-16T20:56:39.760Z,14.92
2022-09-16T20:59:12.568Z,14.92
2022-09-16T21:01:41.468Z,14.95
2022-09-16T21:04:16.155Z,14.93
2022-09-16T21:06:43.879Z,15.02
2022-09-16T21:09:14.411Z,14.98
2022-09-16T21:11:44.481Z,15.02
2022-09-16T21:14:15.076Z,14.87
2022-09-16T21:16:43.033Z,14.77
2022-09-16T21:19:12.606Z,14.78
2022-09-16T21:21:44.014Z,14.63
2022-09-16T21:24:11.143Z,14.59
2022-09-16T21:26:40.102Z,14.54
2022-09-16T21:29:11.978Z,14.51
2022-09-16T21:31:41.300Z,14.47
2022-09-16T21:34:14.959Z,14.36
2022-09-16T21:36:44.227Z,14.33
2022-09-16T21:39:12.214Z,14.28
2022-09-16T21:41:39.067Z,14.23
2022-09-16T21:44:05.969Z,14.21
2022-09-16T21:46:42.947Z,14.21
2022-09-16T21:49:25.755Z,14.19
2022-09-16T21:51:55.291Z,14.27
2022-09-16T21:54:22.991Z,14.29
2022-09-16T21:56:51.285Z,14.28
2022-09-16T21:59:19.757Z,14.23
2022-09-16T22:01:47.741Z,14.14
2022-09-16T22:04:21.243Z,14.03
2022-09-16T22:06:49.019Z,13.94
2022-09-16T22:09:16.478Z,13.85
2022-09-16T22:11:43.393Z,13.72
2022-09-16T22:14:11.143Z,13.61
2022-09-16T22:16:39.604Z,13.53
2022-09-16T22:19:11.367Z,13.49
2022-09-16T22:21:43.811Z,13.36
2022-09-16T22:24:11.548Z,13.34
2022-09-16T22:26:39.083Z,13.31
2022-09-16T22:29:06.389Z,13.27
2022-09-16T22:31:36.731Z,13.24
2022-09-16T22:34:04.435Z,13.22
2022-09-16T22:36:34.017Z,13.15
2022-09-16T22:39:12.435Z,13.08
2022-09-16T22:41:39.212Z,12.94
2022-09-16T22:44:06.103Z,12.92
2022-09-16T22:46:44.055Z,12.85
2022-09-16T22:49:11.734Z,12.75
2022-09-16T22:51:39.185Z,12.75
2022-09-16T22:54:07.154Z,12.73
2022-09-16T22:56:34.831Z,12.73
2022-09-16T22:59:04.426Z,12.74
2022-09-16T23:01:40.491Z,12.70
2022-09-16T23:04:09.695Z,12.74
2022-09-16T23:06:38.511Z,12.77
2022-09-16T23:09:07.273Z,12.71
2022-09-16T23:11:35.679Z,12.76
2022-09-16T23:14:04.064Z,12.78
2022-09-16T23:16:36.860Z,12.78
2022-09-16T23:19:08.394Z,12.79
2022-09-16T23:21:36.655Z,12.79
2022-09-16T23:24:05.197Z,12.77
2022-09-16T23:26:37.674Z,12.74
2022-09-16T23:29:08.632Z,12.83
2022-09-16T23:31:40.364Z,12.73
2022-09-16T23:34:12.178Z,12.72
2022-09-16T23:36:39.352Z,12.67
2022-09-16T23:39:08.055Z,12.67
2022-09-16T23:41:35.933Z,12.65
2022-09-16T23:44:03.462Z,12.65
2022-09-16T23:46:31.163Z,12.59
2022-09-16T23:48:58.857Z,12.57
2022-09-16T23:51:28.590Z,12.57
2022-09-16T23:53:57.013Z,12.55
2022-09-16T23:56:24.327Z,12.53
2022-09-16T23:58:51.219Z,12.53
